In Rescue
 
Open Full Screen Window  High Contrast Mode
April 20, 2024 6:10 AM PDT
Weather Information
Wind Direction
  ---
Wind Speed
  00 kt (0 mph)
Wind Gust
  00 kt (0 mph)
Altimeter
30.04 in
Visibility
8 SM
Temperature
11° C
52° F
Dewpoint
10° C
50° F
Humidity
94%
Sky Condition
Overcast @ 400 ft
LIFR

METAR KCVH 201310Z AUTO 00000KT 8SM OVC004 11/10 A3004 RMK A01

FAA Disclaimer: The data displayed is for advisory purposes only and is not to be used for flight planning or operations.